createdAt,value
2018-09-30T00:00:01.516Z,95.41
2018-09-30T00:01:01.253Z,95.5
2018-09-30T00:02:01.240Z,95.46
2018-09-30T00:03:01.484Z,95.65
2018-09-30T00:04:01.214Z,95.6
2018-09-30T00:05:01.459Z,95.6
2018-09-30T00:06:01.445Z,95.69
2018-09-30T00:07:01.431Z,95.5
2018-09-30T00:08:01.422Z,95.6
2018-09-30T00:09:01.404Z,95.5
2018-09-30T00:10:01.398Z,95.79
2018-09-30T00:11:01.379Z,95.6
2018-09-30T00:12:01.114Z,95.6
2018-09-30T00:13:01.357Z,95.55
2018-09-30T00:14:01.091Z,95.79
2018-09-30T00:15:01.077Z,95.79
2018-09-30T00:16:01.332Z,95.6
2018-09-30T00:17:01.053Z,95.41
2018-09-30T00:18:01.293Z,95.6
2018-09-30T00:19:01.281Z,95.5
2018-09-30T00:20:01.016Z,95.6
2018-09-30T00:21:01.002Z,95.79
2018-09-30T00:22:01.255Z,95.5
2018-09-30T00:23:00.981Z,95.5
2018-09-30T00:24:00.964Z,95.41
2018-09-30T00:25:01.208Z,95.31
2018-09-30T00:26:00.939Z,95.41
2018-09-30T00:27:01.178Z,95.41
2018-09-30T00:28:00.914Z,95.22
2018-09-30T00:29:01.155Z,95.22
2018-09-30T00:30:01.144Z,95.6
2018-09-30T00:31:01.183Z,95.22
2018-09-30T00:32:01.152Z,95.79
2018-09-30T00:33:01.108Z,95.69
2018-09-30T00:34:01.093Z,95.69
2018-09-30T00:35:00.826Z,95.88
2018-09-30T00:36:00.819Z,95.6
2018-09-30T00:37:01.057Z,95.41
2018-09-30T00:38:01.040Z,95.6
2018-09-30T00:39:00.776Z,95.6
2018-09-30T00:40:01.013Z,95.12
2018-09-30T00:41:00.750Z,95.88
2018-09-30T00:42:00.990Z,95.31
2018-09-30T00:43:00.978Z,95.88
2018-09-30T00:44:00.965Z,95.41
2018-09-30T00:45:00.955Z,95.31
2018-09-30T00:46:00.941Z,95.22
2018-09-30T00:47:00.928Z,95.88
2018-09-30T00:48:00.917Z,95.6
2018-09-30T00:49:00.906Z,95.88
2018-09-30T00:50:00.639Z,95.69
2018-09-30T00:51:00.623Z,95.6
2018-09-30T00:52:00.864Z,95.79
2018-09-30T00:53:00.850Z,95.88
2018-09-30T00:54:00.838Z,95.79
2018-09-30T00:55:00.825Z,95.69
2018-09-30T00:56:00.810Z,95.69
2018-09-30T00:57:00.799Z,95.6
2018-09-30T00:58:00.790Z,95.79
2018-09-30T00:59:00.775Z,95.79
2018-09-30T01:00:00.764Z,95.69
2018-09-30T01:01:00.749Z,95.69
2018-09-30T01:02:00.482Z,95.69
2018-09-30T01:03:00.725Z,95.69
2018-09-30T01:04:00.714Z,95.69
2018-09-30T01:05:00.696Z,95.69
2018-09-30T01:06:00.692Z,95.69
2018-09-30T01:07:00.669Z,95.79
2018-09-30T01:08:00.657Z,95.6
2018-09-30T01:09:00.645Z,95.6
2018-09-30T01:10:00.632Z,95.69
2018-09-30T01:11:00.624Z,95.69
2018-09-30T01:12:00.607Z,95.69
2018-09-30T01:13:00.593Z,95.69
2018-09-30T01:14:00.583Z,95.69
2018-09-30T01:15:00.569Z,95.69
2018-09-30T01:16:00.555Z,95.69
2018-09-30T01:17:00.291Z,95.5
2018-09-30T01:18:00.530Z,95.79
2018-09-30T01:19:00.522Z,95.69
2018-09-30T01:20:00.508Z,95.6
2018-09-30T01:21:00.491Z,95.69
2018-09-30T01:22:00.483Z,95.69
2018-09-30T01:23:00.465Z,95.22
2018-09-30T01:24:00.455Z,95.41
2018-09-30T01:25:00.439Z,95.6
2018-09-30T01:26:00.431Z,95.22
2018-09-30T01:27:00.420Z,95.69
2018-09-30T01:28:00.403Z,95.88
2018-09-30T01:29:00.388Z,95.69
2018-09-30T01:30:00.125Z,95.79
2018-09-30T01:31:00.364Z,95.6
2018-09-30T01:32:00.353Z,95.6
2018-09-30T01:33:00.337Z,95.69
2018-09-30T01:34:00.323Z,95.69
2018-09-30T01:35:00.315Z,95.88
2018-09-30T01:36:00.298Z,95.79
2018-09-30T01:37:00.288Z,95.79
2018-09-30T01:38:00.272Z,95.69
2018-09-30T01:39:00.260Z,95.69
2018-09-30T01:40:00.248Z,95.69
2018-09-30T01:41:00.234Z,95.88
2018-09-30T01:42:00.225Z,95.69
2018-09-30T01:43:00.207Z,95.6
2018-09-30T01:44:00.200Z,95.84
2018-09-30T01:45:00.185Z,95.69
2018-09-30T01:45:59.921Z,95.41
2018-09-30T01:47:00.162Z,95.41
2018-09-30T01:48:00.145Z,95.36
2018-09-30T01:49:00.131Z,95.41
2018-09-30T01:50:00.119Z,95.55
2018-09-30T01:51:00.107Z,95.74
2018-09-30T01:52:00.093Z,95.55
2018-09-30T01:53:00.080Z,95.45
2018-09-30T01:54:00.067Z,95.55
2018-09-30T01:55:00.057Z,95.65
2018-09-30T01:56:00.044Z,95.65
2018-09-30T01:57:00.031Z,95.65
2018-09-30T01:58:00.015Z,95.65
2018-09-30T01:59:00.002Z,95.74
2018-09-30T01:59:59.991Z,95.93
2018-09-30T02:00:59.975Z,95.55
2018-09-30T02:01:59.963Z,95.65
2018-09-30T02:02:59.949Z,95.74
2018-09-30T02:03:59.937Z,95.55
2018-09-30T02:04:59.923Z,95.93
2018-09-30T02:05:59.911Z,95.74
2018-09-30T02:06:59.901Z,95.84
2018-09-30T02:07:59.884Z,95.65
2018-09-30T02:08:59.873Z,95.65
2018-09-30T02:09:59.860Z,95.55
2018-09-30T02:10:59.845Z,95.55
2018-09-30T02:11:59.832Z,95.55
2018-09-30T02:12:59.819Z,95.55
2018-09-30T02:13:59.555Z,95.55
2018-09-30T02:14:59.793Z,95.55
2018-09-30T02:15:59.781Z,95.45
2018-09-30T02:16:59.768Z,95.45
2018-09-30T02:17:59.756Z,95.55
2018-09-30T02:18:59.740Z,95.74
2018-09-30T02:19:59.739Z,95.45
2018-09-30T02:20:59.715Z,95.45
2018-09-30T02:21:59.706Z,95.55
2018-09-30T02:22:59.689Z,95.45
2018-09-30T02:23:59.677Z,95.45
2018-09-30T02:24:59.663Z,95.55
2018-09-30T02:25:59.654Z,95.65
2018-09-30T02:26:59.640Z,95.65
2018-09-30T02:27:59.624Z,95.65
2018-09-30T02:28:59.613Z,95.45
2018-09-30T02:29:59.596Z,95.45
2018-09-30T02:30:59.588Z,95.55
2018-09-30T02:31:59.572Z,95.55
2018-09-30T02:32:59.565Z,95.45
2018-09-30T02:33:59.545Z,95.45
2018-09-30T02:34:59.530Z,95.45
2018-09-30T02:35:59.519Z,95.55
2018-09-30T02:36:59.506Z,95.65
2018-09-30T02:37:59.501Z,95.74
2018-09-30T02:38:59.481Z,95.55
2018-09-30T02:39:59.470Z,95.55
2018-09-30T02:40:59.459Z,95.84
2018-09-30T02:41:59.439Z,95.55
2018-09-30T02:42:59.427Z,95.45
2018-09-30T02:43:59.415Z,95.65
2018-09-30T02:44:59.399Z,95.45
2018-09-30T02:45:59.136Z,95.55
2018-09-30T02:46:59.383Z,95.55
2018-09-30T02:47:59.361Z,95.45
2018-09-30T02:48:59.349Z,95.45
2018-09-30T02:49:59.083Z,95.55
2018-09-30T02:50:59.321Z,95.36
2018-09-30T02:51:59.310Z,95.55
2018-09-30T02:52:59.043Z,95.65
2018-09-30T02:53:59.297Z,95.65
2018-09-30T02:54:59.283Z,95.45
2018-09-30T02:55:59.257Z,95.45
2018-09-30T02:56:59.244Z,95.45
2018-09-30T02:57:59.231Z,95.55
2018-09-30T02:58:59.215Z,95.55
2018-09-30T02:59:59.202Z,95.45
2018-09-30T03:00:59.193Z,95.84
2018-09-30T03:01:59.177Z,95.45
2018-09-30T03:02:59.165Z,95.65
2018-09-30T03:03:59.156Z,95.65
2018-09-30T03:04:59.147Z,96.12
2018-09-30T03:05:59.122Z,95.74
2018-09-30T03:06:59.108Z,96.12
2018-09-30T03:07:59.099Z,96.22
2018-09-30T03:08:59.082Z,96.12
2018-09-30T03:09:59.068Z,96.12
2018-09-30T03:10:59.058Z,95.65
2018-09-30T03:11:59.055Z,95.65
2018-09-30T03:12:59.029Z,95.55
2018-09-30T03:13:59.022Z,96.12
2018-09-30T03:14:59.003Z,96.22
2018-09-30T03:15:58.993Z,96.12
2018-09-30T03:16:58.976Z,96.22
2018-09-30T03:17:58.962Z,96.22
2018-09-30T03:18:58.950Z,96.03
2018-09-30T03:19:58.937Z,95.65
2018-09-30T03:20:58.926Z,95.65
2018-09-30T03:21:58.914Z,95.45
2018-09-30T03:22:58.903Z,95.74
2018-09-30T03:23:58.887Z,95.74
2018-09-30T03:24:58.870Z,95.65
2018-09-30T03:25:58.859Z,95.45
2018-09-30T03:26:58.857Z,95.65
2018-09-30T03:27:58.831Z,95.55
2018-09-30T03:28:58.819Z,95.65
2018-09-30T03:29:58.551Z,95.45
2018-09-30T03:30:58.790Z,96.31
2018-09-30T03:31:58.525Z,96.22
2018-09-30T03:32:58.764Z,96.03
2018-09-30T03:33:58.752Z,95.84
2018-09-30T03:34:58.740Z,95.84
2018-09-30T03:35:58.726Z,95.93
2018-09-30T03:36:58.717Z,95.93
2018-09-30T03:37:58.698Z,95.84
2018-09-30T03:38:58.689Z,95.93
2018-09-30T03:39:58.675Z,95.65
2018-09-30T03:40:58.665Z,95.84
2018-09-30T03:41:58.646Z,96.12
2018-09-30T03:42:58.381Z,96.03
2018-09-30T03:43:58.618Z,96.12
2018-09-30T03:44:58.619Z,95.84
2018-09-30T03:45:58.592Z,96.12
2018-09-30T03:46:58.326Z,95.84
2018-09-30T03:47:58.568Z,96.12
2018-09-30T03:48:58.300Z,96.12
2018-09-30T03:49:58.540Z,95.84
2018-09-30T03:50:58.272Z,96.03
2018-09-30T03:51:58.511Z,96.03
2018-09-30T03:52:58.505Z,96.03
2018-09-30T03:53:58.233Z,95.84
2018-09-30T03:54:58.473Z,95.84
2018-09-30T03:55:58.206Z,95.84
2018-09-30T03:56:58.446Z,95.74
2018-09-30T03:57:58.444Z,96.03
2018-09-30T03:58:58.442Z,95.55
2018-09-30T03:59:58.153Z,95.65
2018-09-30T04:00:58.410Z,95.74
2018-09-30T04:01:58.128Z,95.84
2018-09-30T04:02:58.114Z,95.84
2018-09-30T04:03:58.098Z,96.03
2018-09-30T04:04:58.086Z,96.03
2018-09-30T04:05:58.073Z,95.93
2018-09-30T04:06:58.311Z,95.84
2018-09-30T04:07:58.048Z,95.84
2018-09-30T04:08:58.032Z,95.84
2018-09-30T04:09:58.079Z,95.84
2018-09-30T04:10:58.267Z,96.12
2018-09-30T04:11:57.994Z,95.84
2018-09-30T04:12:57.979Z,95.84
2018-09-30T04:13:58.225Z,95.84
2018-09-30T04:14:57.953Z,95.74
2018-09-30T04:15:58.197Z,96.03
2018-09-30T04:16:58.353Z,96.03
2018-09-30T04:17:57.913Z,95.93
2018-09-30T04:18:57.898Z,96.12
2018-09-30T04:19:58.141Z,96.03
2018-09-30T04:20:58.125Z,96.12
2018-09-30T04:21:57.861Z,96.03
2018-09-30T04:22:58.100Z,96.03
2018-09-30T04:23:57.833Z,95.93
2018-09-30T04:24:57.821Z,95.84
2018-09-30T04:25:57.805Z,96.03
2018-09-30T04:26:58.050Z,95.93
2018-09-30T04:27:58.036Z,96.03
2018-09-30T04:28:57.766Z,95.65
2018-09-30T04:29:58.003Z,96.03
2018-09-30T04:30:57.996Z,95.65
2018-09-30T04:31:57.727Z,96.03
2018-09-30T04:32:57.969Z,96.03
2018-09-30T04:33:57.949Z,96.03
2018-09-30T04:34:57.943Z,96.12
2018-09-30T04:35:57.926Z,95.74
2018-09-30T04:36:57.910Z,96.12
2018-09-30T04:37:57.912Z,95.74
2018-09-30T04:38:57.883Z,95.84
2018-09-30T04:39:57.872Z,95.84
2018-09-30T04:40:57.862Z,96.03
2018-09-30T04:41:57.843Z,96.03
2018-09-30T04:42:57.833Z,95.84
2018-09-30T04:43:57.818Z,96.12
2018-09-30T04:44:57.805Z,96.22
2018-09-30T04:45:57.798Z,96.12
2018-09-30T04:46:57.780Z,96.12
2018-09-30T04:47:57.762Z,96.22
2018-09-30T04:48:57.749Z,96.12
2018-09-30T04:49:57.848Z,95.65
2018-09-30T04:50:57.724Z,95.65
2018-09-30T04:51:57.716Z,95.65
2018-09-30T04:52:57.699Z,95.65
2018-09-30T04:53:57.682Z,95.65
2018-09-30T04:54:57.670Z,95.36
2018-09-30T04:55:57.657Z,95.65
2018-09-30T04:56:57.643Z,95.65
2018-09-30T04:57:57.650Z,95.65
2018-09-30T04:58:57.617Z,95.45
2018-09-30T04:59:57.605Z,95.45
2018-09-30T05:00:57.590Z,95.65
2018-09-30T05:01:57.577Z,95.45
2018-09-30T05:02:57.312Z,95.65
2018-09-30T05:03:57.553Z,95.65
2018-09-30T05:04:57.538Z,95.45
2018-09-30T05:05:57.693Z,95.45
2018-09-30T05:06:57.512Z,95.45
2018-09-30T05:07:57.499Z,95.36
2018-09-30T05:08:57.488Z,95.65
2018-09-30T05:09:57.470Z,95.74
2018-09-30T05:10:57.462Z,95.45
2018-09-30T05:11:57.193Z,95.65
2018-09-30T05:12:57.437Z,95.65
2018-09-30T05:13:57.418Z,95.65
2018-09-30T05:14:57.404Z,95.45
2018-09-30T05:15:57.196Z,95.55
2018-09-30T05:16:57.378Z,95.55
2018-09-30T05:17:57.367Z,95.65
2018-09-30T05:18:57.352Z,95.36
2018-09-30T05:19:57.339Z,95.65
2018-09-30T05:20:57.073Z,95.45
2018-09-30T05:21:57.312Z,95.65
2018-09-30T05:22:57.050Z,95.45
2018-09-30T05:23:57.285Z,96.03
2018-09-30T05:24:57.284Z,96.03
2018-09-30T05:25:57.259Z,96.22
2018-09-30T05:26:57.246Z,96.12
2018-09-30T05:27:57.244Z,95.65
2018-09-30T05:28:57.223Z,96.12
2018-09-30T05:29:57.206Z,96.17
2018-09-30T05:30:57.194Z,96.26
2018-09-30T05:31:57.181Z,96.08
2018-09-30T05:32:57.168Z,95.69
2018-09-30T05:33:57.155Z,95.69
2018-09-30T05:34:57.142Z,95.41
2018-09-30T05:35:57.128Z,95.41
2018-09-30T05:36:57.116Z,95.6
2018-09-30T05:37:57.104Z,95.6
2018-09-30T05:38:57.091Z,95.5
2018-09-30T05:39:57.077Z,95.41
2018-09-30T05:40:57.066Z,95.79
2018-09-30T05:41:57.052Z,95.55
2018-09-30T05:42:57.040Z,95.36
2018-09-30T05:43:57.027Z,95.46
2018-09-30T05:44:57.026Z,95.46
2018-09-30T05:45:57.002Z,95.55
2018-09-30T05:46:56.995Z,94.93
2018-09-30T05:47:57.029Z,94.74
2018-09-30T05:48:56.736Z,94.84
2018-09-30T05:49:56.956Z,94.98
2018-09-30T05:50:56.944Z,94.7
2018-09-30T05:51:56.932Z,94.23
2018-09-30T05:52:56.928Z,94.6
2018-09-30T05:53:56.910Z,94.13
2018-09-30T05:54:56.899Z,94.13
2018-09-30T05:55:56.892Z,93.89
2018-09-30T05:56:56.878Z,93.7
2018-09-30T05:57:56.944Z,93.6
2018-09-30T05:58:56.858Z,93.32
2018-09-30T05:59:56.847Z,92.85
2018-09-30T06:00:56.584Z,92.99
2018-09-30T06:01:56.831Z,92.89
2018-09-30T06:02:56.819Z,92.32
2018-09-30T06:03:57.808Z,92.7
2018-09-30T06:04:56.797Z,92.51
2018-09-30T06:05:56.790Z,92.32
2018-09-30T06:06:56.781Z,92.51
2018-09-30T06:07:56.771Z,91.61
2018-09-30T06:08:56.783Z,91.42
2018-09-30T06:09:56.497Z,91.03
2018-09-30T06:10:56.740Z,91.03
2018-09-30T06:11:56.730Z,90.61
2018-09-30T06:12:56.470Z,90.61
2018-09-30T06:13:56.643Z,89.84
2018-09-30T06:14:56.705Z,89.98
2018-09-30T06:15:56.819Z,89.13
2018-09-30T06:16:56.435Z,89.03
2018-09-30T06:17:56.679Z,88.03
2018-09-30T06:18:56.672Z,87.55
2018-09-30T06:19:56.663Z,87.17
2018-09-30T06:20:56.657Z,86.79
2018-09-30T06:21:56.648Z,86.74
2018-09-30T06:22:56.639Z,85.97
2018-09-30T06:23:56.698Z,85.97
2018-09-30T06:24:56.624Z,85.02
2018-09-30T06:25:56.623Z,85.12
2018-09-30T06:26:56.611Z,84.69
2018-09-30T06:27:56.607Z,83.83
2018-09-30T06:28:56.599Z,83.64
2018-09-30T06:29:56.339Z,82.72
2018-09-30T06:30:56.585Z,82.06
2018-09-30T06:31:56.701Z,82.34
2018-09-30T06:32:56.573Z,81.77
2018-09-30T06:33:56.566Z,81.24
2018-09-30T06:34:56.564Z,81.14
2018-09-30T06:35:56.557Z,80.57
2018-09-30T06:36:56.550Z,79.52
2018-09-30T06:37:56.544Z,79.27
2018-09-30T06:38:56.540Z,77.84
2018-09-30T06:39:56.539Z,78.22
2018-09-30T06:40:56.532Z,78.22
2018-09-30T06:41:56.529Z,77.36
2018-09-30T06:42:56.546Z,77.36
2018-09-30T06:43:56.264Z,76.25
2018-09-30T06:44:56.595Z,76.16
2018-09-30T06:45:56.510Z,75.87
2018-09-30T06:46:56.540Z,74.63
2018-09-30T06:47:56.509Z,74.76
2018-09-30T06:48:56.498Z,74.85
2018-09-30T06:49:56.493Z,74.76
2018-09-30T06:50:56.599Z,73.71
2018-09-30T06:51:56.482Z,72.85
2018-09-30T06:52:56.478Z,71.55
2018-09-30T06:53:56.475Z,71.16
2018-09-30T06:54:56.477Z,71.07
2018-09-30T06:55:56.469Z,70.87
2018-09-30T06:56:56.466Z,70.01
2018-09-30T06:57:56.468Z,69.92
2018-09-30T06:58:56.464Z,69.38
2018-09-30T06:59:56.206Z,68.71
2018-09-30T07:00:56.203Z,68.33
2018-09-30T07:01:56.200Z,67.76
2018-09-30T07:02:56.447Z,66.41
2018-09-30T07:03:56.449Z,65.65
2018-09-30T07:04:56.679Z,65.55
2018-09-30T07:05:56.443Z,65.78
2018-09-30T07:06:56.441Z,65.68
2018-09-30T07:07:56.439Z,65.39
2018-09-30T07:08:56.439Z,64.53
2018-09-30T07:09:56.186Z,64.53
2018-09-30T07:10:56.589Z,64.34
2018-09-30T07:11:56.437Z,63.13
2018-09-30T07:12:56.182Z,63.42
2018-09-30T07:13:56.432Z,62.65
2018-09-30T07:14:56.433Z,61.6
2018-09-30T07:15:56.431Z,61.6
2018-09-30T07:16:56.646Z,61.24
2018-09-30T07:17:56.428Z,61.24
2018-09-30T07:18:56.429Z,61.34
2018-09-30T07:19:56.431Z,60.89
2018-09-30T07:20:56.427Z,61.08
2018-09-30T07:21:56.426Z,59.64
2018-09-30T07:22:56.427Z,58.49
2018-09-30T07:23:56.425Z,58.59
2018-09-30T07:24:56.424Z,58.11
2018-09-30T07:25:56.487Z,57.75
2018-09-30T07:26:56.425Z,57.85
2018-09-30T07:27:56.172Z,58.33
2018-09-30T07:28:56.422Z,57.85
2018-09-30T07:29:56.423Z,56.89
2018-09-30T07:30:56.421Z,56.12
2018-09-30T07:31:56.436Z,56.31
2018-09-30T07:32:56.426Z,56.29
2018-09-30T07:33:56.569Z,56.67
2018-09-30T07:34:56.422Z,56.57
2018-09-30T07:35:56.419Z,57.06
2018-09-30T07:36:56.421Z,56.67
2018-09-30T07:37:56.418Z,56.38
2018-09-30T07:38:56.418Z,56.48
2018-09-30T07:39:56.425Z,56.86
2018-09-30T07:40:56.417Z,56.38
2018-09-30T07:41:56.422Z,57.06
2018-09-30T07:42:56.462Z,56.67
2018-09-30T07:43:56.162Z,56.19
2018-09-30T07:44:56.163Z,55.8
2018-09-30T07:45:56.412Z,55.01
2018-09-30T07:46:56.606Z,55.11
2018-09-30T07:47:56.423Z,55.49
2018-09-30T07:48:56.410Z,55.36
2018-09-30T07:49:56.411Z,55.75
2018-09-30T07:50:56.407Z,56.32
2018-09-30T07:51:56.406Z,57.09
2018-09-30T07:52:56.405Z,57.64
2018-09-30T07:53:56.404Z,57.26
2018-09-30T07:54:56.403Z,57.35
2018-09-30T07:55:56.397Z,57.45
2018-09-30T07:56:56.399Z,57.83
2018-09-30T07:57:56.391Z,57.99
2018-09-30T07:58:56.137Z,57.99
2018-09-30T07:59:56.385Z,58.47
2018-09-30T08:00:56.386Z,58.76
2018-09-30T08:01:56.377Z,59.23
2018-09-30T08:02:56.378Z,59.05
2018-09-30T08:03:56.374Z,58.86
2018-09-30T08:04:56.369Z,59.11
2018-09-30T08:05:56.362Z,58.92
2018-09-30T08:06:56.360Z,58.92
2018-09-30T08:07:56.102Z,59.3
2018-09-30T08:08:56.097Z,59.94
2018-09-30T08:09:56.347Z,60.83
2018-09-30T08:10:56.340Z,60.83
2018-09-30T08:11:56.084Z,61.12
2018-09-30T08:12:56.330Z,61.38
2018-09-30T08:13:56.324Z,60.04
2018-09-30T08:14:56.068Z,59.84
2018-09-30T08:15:56.318Z,59.18
2018-09-30T08:16:56.509Z,59.37
2018-09-30T08:17:56.303Z,59.94
2018-09-30T08:18:56.297Z,59.94
2018-09-30T08:19:56.292Z,60.13
2018-09-30T08:20:56.288Z,59.94
2018-09-30T08:21:56.288Z,59.75
2018-09-30T08:22:56.024Z,59.94
2018-09-30T08:23:56.351Z,59.94
2018-09-30T08:24:56.266Z,59.47
2018-09-30T08:25:56.262Z,59.84
2018-09-30T08:26:56.253Z,60.04
2018-09-30T08:27:56.249Z,59.75
2018-09-30T08:28:55.992Z,59.75
2018-09-30T08:29:56.234Z,59.56
2018-09-30T08:30:56.302Z,59.37
2018-09-30T08:31:56.222Z,59.84
2018-09-30T08:32:56.216Z,60.04
2018-09-30T08:33:55.961Z,59.27
2018-09-30T08:34:55.950Z,59.66
2018-09-30T08:35:55.944Z,59.84
2018-09-30T08:36:56.194Z,59.75
2018-09-30T08:37:56.186Z,59.08
2018-09-30T08:38:56.179Z,58.98
2018-09-30T08:39:56.295Z,58.89
2018-09-30T08:40:56.168Z,58.32
2018-09-30T08:41:56.159Z,58.89
2018-09-30T08:42:56.155Z,58.7
2018-09-30T08:43:56.544Z,58.7
2018-09-30T08:44:56.141Z,58.98
2018-09-30T08:45:56.335Z,58.8
2018-09-30T08:46:56.323Z,58.89
2018-09-30T08:47:56.122Z,59.08
2018-09-30T08:48:56.119Z,58.89
2018-09-30T08:49:56.113Z,59.08
2018-09-30T08:50:56.103Z,59.08
2018-09-30T08:51:56.098Z,59.08
2018-09-30T08:52:55.840Z,58.89
2018-09-30T08:53:56.243Z,58.22
2018-09-30T08:54:56.079Z,57.77
2018-09-30T08:55:56.186Z,57.68
2018-09-30T08:56:56.072Z,57.68
2018-09-30T08:57:56.073Z,57.77
2018-09-30T08:58:56.054Z,58.06
2018-09-30T08:59:55.795Z,58.83
2018-09-30T09:00:56.041Z,58.63
2018-09-30T09:01:56.035Z,58.25
2018-09-30T09:02:56.138Z,57.77
2018-09-30T09:03:55.771Z,57.87
2018-09-30T09:04:56.018Z,58.15
2018-09-30T09:05:55.762Z,58.15
2018-09-30T09:06:56.004Z,57.29
2018-09-30T09:07:55.999Z,57.68
2018-09-30T09:08:55.995Z,57.01
2018-09-30T09:09:56.309Z,56.91
2018-09-30T09:10:55.729Z,56.34
2018-09-30T09:11:55.723Z,56.62
2018-09-30T09:12:55.967Z,56.37
2018-09-30T09:13:55.962Z,56.27
2018-09-30T09:14:55.955Z,56.17
2018-09-30T09:15:55.955Z,55.88
2018-09-30T09:16:55.949Z,55.88
2018-09-30T09:17:55.943Z,55.41
2018-09-30T09:18:55.934Z,55.41
2018-09-30T09:19:55.925Z,55.31
2018-09-30T09:20:55.923Z,54.83
2018-09-30T09:21:55.912Z,54.16
2018-09-30T09:22:56.047Z,54.83
2018-09-30T09:23:55.904Z,54.26
2018-09-30T09:24:55.897Z,54.16
2018-09-30T09:25:55.889Z,54.07
2018-09-30T09:26:55.884Z,54.45
2018-09-30T09:27:55.962Z,54.07
2018-09-30T09:28:55.873Z,54.36
2018-09-30T09:29:55.870Z,54.36
2018-09-30T09:30:55.862Z,54.36
2018-09-30T09:31:55.858Z,54.26
2018-09-30T09:32:55.925Z,54.07
2018-09-30T09:33:55.592Z,53.3
2018-09-30T09:34:55.917Z,52.95
2018-09-30T09:35:55.833Z,52.75
2018-09-30T09:36:55.826Z,53.52
2018-09-30T09:37:55.821Z,53.23
2018-09-30T09:38:55.823Z,52.85
2018-09-30T09:39:55.557Z,52.75
2018-09-30T09:40:55.804Z,53.04
2018-09-30T09:41:55.799Z,52.95
2018-09-30T09:42:55.793Z,52.66
2018-09-30T09:43:55.789Z,53.42
2018-09-30T09:44:55.782Z,53.14
2018-09-30T09:45:55.823Z,53.62
2018-09-30T09:46:55.800Z,53.23
2018-09-30T09:47:55.512Z,52.95
2018-09-30T09:48:55.758Z,53.52
2018-09-30T09:49:55.757Z,53.33
2018-09-30T09:50:55.501Z,53.23
2018-09-30T09:51:55.741Z,53.42
2018-09-30T09:52:55.742Z,54.28
2018-09-30T09:53:55.731Z,53.04
2018-09-30T09:54:55.730Z,53.33
2018-09-30T09:55:55.723Z,53.42
2018-09-30T09:56:55.715Z,53.23
2018-09-30T09:57:55.709Z,53.55
2018-09-30T09:58:55.886Z,53.62
2018-09-30T09:59:55.697Z,52.87
2018-09-30T10:00:55.441Z,52.87
2018-09-30T10:01:55.686Z,52.97
2018-09-30T10:02:55.684Z,53.07
2018-09-30T10:03:55.676Z,52.3
2018-09-30T10:04:55.693Z,52.2
2018-09-30T10:05:55.665Z,52.3
2018-09-30T10:06:55.659Z,52.3
2018-09-30T10:07:55.401Z,52.97
2018-09-30T10:08:55.649Z,53.16
2018-09-30T10:09:55.644Z,52.4
2018-09-30T10:10:55.637Z,52.59
2018-09-30T10:11:55.638Z,52.2
2018-09-30T10:12:55.691Z,52.11
2018-09-30T10:13:55.620Z,52.4
2018-09-30T10:14:55.618Z,52.01
2018-09-30T10:15:55.619Z,52.5
2018-09-30T10:16:55.608Z,52.3
2018-09-30T10:17:55.347Z,52.2
2018-09-30T10:18:55.595Z,52.5
2018-09-30T10:19:55.338Z,52.11
2018-09-30T10:20:55.583Z,52.4
2018-09-30T10:21:55.579Z,52.01
2018-09-30T10:22:55.572Z,52.2
2018-09-30T10:23:55.567Z,52.11
2018-09-30T10:24:55.564Z,52.59
2018-09-30T10:25:56.376Z,52.3
2018-09-30T10:26:55.550Z,52.2
2018-09-30T10:27:55.297Z,51.92
2018-09-30T10:28:55.543Z,52.23
2018-09-30T10:29:55.536Z,51.85
2018-09-30T10:30:55.278Z,51.95
2018-09-30T10:31:55.529Z,51.65
2018-09-30T10:32:55.521Z,51.92
2018-09-30T10:33:55.261Z,51.95
2018-09-30T10:34:55.506Z,51.95
2018-09-30T10:35:55.503Z,51.56
2018-09-30T10:36:55.245Z,51.08
2018-09-30T10:37:55.497Z,50.7
2018-09-30T10:38:55.298Z,50.79
2018-09-30T10:39:55.485Z,51.08
2018-09-30T10:40:55.476Z,50.89
2018-09-30T10:41:55.482Z,51.08
2018-09-30T10:42:55.214Z,51.18
2018-09-30T10:43:55.460Z,51.08
2018-09-30T10:44:55.456Z,51.08
2018-09-30T10:45:55.450Z,50.89
2018-09-30T10:46:55.465Z,51.08
2018-09-30T10:47:55.442Z,51.18
2018-09-30T10:48:55.435Z,50.89
2018-09-30T10:49:55.429Z,50.7
2018-09-30T10:50:55.427Z,50.89
2018-09-30T10:51:55.420Z,51.18
2018-09-30T10:52:55.418Z,51.28
2018-09-30T10:53:55.407Z,51.56
2018-09-30T10:54:55.410Z,51.46
2018-09-30T10:55:55.146Z,51.37
2018-09-30T10:56:55.546Z,50.6
2018-09-30T10:57:55.387Z,50.32
2018-09-30T10:58:55.130Z,49.65
2018-09-30T10:59:55.384Z,50.03
2018-09-30T11:00:55.371Z,50.22
2018-09-30T11:01:55.366Z,50.51
2018-09-30T11:02:55.368Z,50.22
2018-09-30T11:03:55.358Z,50.51
2018-09-30T11:04:55.353Z,50.51
2018-09-30T11:05:55.350Z,51.08
2018-09-30T11:06:55.345Z,51.18
2018-09-30T11:07:55.337Z,50.51
2018-09-30T11:08:55.079Z,49.1
2018-09-30T11:09:55.126Z,49.16
2018-09-30T11:10:55.321Z,49.67
2018-09-30T11:11:55.316Z,49.55
2018-09-30T11:12:55.309Z,49.55
2018-09-30T11:13:55.311Z,49.86
2018-09-30T11:14:55.317Z,49.84
2018-09-30T11:15:55.383Z,50.12
2018-09-30T11:16:55.291Z,49.65
2018-09-30T11:17:55.285Z,49.48
2018-09-30T11:18:55.283Z,49.26
2018-09-30T11:19:55.275Z,50.03
2018-09-30T11:20:55.270Z,49.96
2018-09-30T11:21:55.014Z,49.96
2018-09-30T11:22:55.260Z,49.36
2018-09-30T11:23:55.255Z,49.55
2018-09-30T11:24:55.255Z,48.43
2018-09-30T11:25:55.249Z,48.43
2018-09-30T11:26:55.242Z,49.19
2018-09-30T11:27:54.982Z,49
2018-09-30T11:28:55.230Z,49
2018-09-30T11:29:54.975Z,49.29
2018-09-30T11:30:54.968Z,49.29
2018-09-30T11:31:55.077Z,48.9
2018-09-30T11:32:55.215Z,49.29
2018-09-30T11:33:54.953Z,49
2018-09-30T11:34:55.198Z,49.19
2018-09-30T11:35:55.194Z,48.43
2018-09-30T11:36:55.188Z,48.13
2018-09-30T11:37:55.184Z,48.13
2018-09-30T11:38:55.182Z,47.75
2018-09-30T11:39:55.175Z,47.75
2018-09-30T11:40:55.170Z,47.66
2018-09-30T11:41:54.913Z,47.85
2018-09-30T11:42:54.908Z,48.04
2018-09-30T11:43:55.155Z,47.85
2018-09-30T11:44:55.150Z,47.37
2018-09-30T11:45:55.143Z,47.37
2018-09-30T11:46:55.143Z,47.27
2018-09-30T11:47:54.882Z,47.94
2018-09-30T11:48:55.130Z,48.13
2018-09-30T11:49:55.123Z,47.85
2018-09-30T11:50:55.119Z,47.94
2018-09-30T11:51:55.121Z,48.04
2018-09-30T11:52:54.857Z,48.23
2018-09-30T11:53:55.110Z,47.94
2018-09-30T11:54:55.105Z,47.27
2018-09-30T11:55:55.096Z,46.79
2018-09-30T11:56:54.838Z,46.7
2018-09-30T11:57:55.086Z,46.6
2018-09-30T11:58:54.828Z,47.1
2018-09-30T11:59:55.074Z,47.58
2018-09-30T12:00:54.819Z,47.56
2018-09-30T12:01:55.065Z,46.62
2018-09-30T12:02:55.075Z,47.08
2018-09-30T12:03:55.055Z,46.7
2018-09-30T12:04:55.055Z,47.01
2018-09-30T12:05:55.046Z,46.98
2018-09-30T12:06:55.043Z,46.43
2018-09-30T12:07:54.784Z,46.6
2018-09-30T12:08:55.034Z,47.08
2018-09-30T12:09:55.028Z,47.58
2018-09-30T12:10:55.031Z,47.49
2018-09-30T12:11:55.017Z,46.89
2018-09-30T12:12:55.011Z,45.83
2018-09-30T12:13:55.007Z,45
2018-09-30T12:14:55.001Z,45.64
2018-09-30T12:15:54.998Z,45.76
2018-09-30T12:16:54.992Z,46.43
2018-09-30T12:17:54.993Z,46.72
2018-09-30T12:18:54.983Z,47.3
2018-09-30T12:19:54.981Z,47.39
2018-09-30T12:20:54.976Z,47.2
2018-09-30T12:21:54.967Z,47.3
2018-09-30T12:22:54.963Z,46.72
2018-09-30T12:23:54.963Z,46.91
2018-09-30T12:24:54.953Z,47.58
2018-09-30T12:25:55.151Z,47.39
2018-09-30T12:26:54.944Z,47.49
2018-09-30T12:27:54.940Z,47.58
2018-09-30T12:28:54.934Z,47.49
2018-09-30T12:29:54.930Z,47.2
2018-09-30T12:30:54.928Z,46.43
2018-09-30T12:31:54.921Z,46.81
2018-09-30T12:32:54.918Z,46.62
2018-09-30T12:33:54.659Z,46.72
2018-09-30T12:34:54.654Z,45
2018-09-30T12:35:54.899Z,45
2018-09-30T12:36:54.908Z,45.28
2018-09-30T12:37:54.894Z,45.09
2018-09-30T12:38:54.637Z,45.28
2018-09-30T12:39:54.882Z,45.37
2018-09-30T12:40:54.878Z,45.18
2018-09-30T12:41:54.873Z,44.9
2018-09-30T12:42:54.865Z,44.7
2018-09-30T12:43:54.863Z,44.7
2018-09-30T12:44:54.612Z,45
2018-09-30T12:45:54.854Z,45.09
2018-09-30T12:46:54.597Z,44.7
2018-09-30T12:47:54.843Z,43.84
2018-09-30T12:48:54.838Z,43.84
2018-09-30T12:49:54.835Z,43.94
2018-09-30T12:50:54.833Z,43.84
2018-09-30T12:51:54.574Z,44.13
2018-09-30T12:52:54.823Z,44.03
2018-09-30T12:53:54.819Z,44.32
2018-09-30T12:54:54.823Z,44.32